Felts Field
KSFF : now visible

Airfield :











YOU CAN JOIN US ON...

 
LOGIN :

Register | Disclaimer

   EN    FR    IT 

 









Legend :    VFR   Marginal VFR   IFR   Intensive IFR   Very Intensive IFR
Visi :
Ceiling :
>= 8 km
>= 3000ft
5 to 8 km
1000 to 3000 ft
1500m to 5 km
500 to 1000 ft
800 to 1500m
200 to 500 ft
< 800m
< 200 ft
Symbols :   Thunderstorms  Fog  Heavy snow  Heavy precipitations  Wind > 20 kt







- Airport Elevation : 1953 ft


KSFF - Felts Field

CURRENT METAR :
  • 221753Z 07016KT 10SM CLR 19/00 A2993 RMK AO2 PK WND 07026/1741 SLP127 T01940000 10194 20122 52004

EXPIRED METARs :
  • 221653Z 08009KT 10SM FEW080 18/01 A2993 RMK AO2 SLP127 T01780006
  • 221553Z 04005KT 10SM BKN080 OVC095 16/02 A2993 RMK AO2 SLP126 T01560022

TAF KSFF
Valid from the 22 at 18:00 until the 23 at 18:00 UTC


221742Z 2218/2318 09003KT P6SM BKN090 BKN250
FM221900 06012G19KT P6SM BKN100 BKN250
FM230100 04006KT P6SM SCT100 SCT200
KZSE FIR / North America



MET'MAP, your aeronautical weather chart ! - Copyright ORBIFLY December 2007 - Disclaimer

ORBIFLY MET'MAP TEAM :

Programming & Development : Alexandra Zaïnal
Concept & Development : Baudouin d'Aumeries
Co-Development & Prog : Marc-Olivier Méhu
Technical & hardware support : Manuel Goepfert

Contact : metmap@orbifly.com




SOURCES & CREDITS :

   NOAA       Earth
Advisory